City Of Cleveland — WDC2358 — position and weather

sailwx.info

Track history (hours):
 
Tides and Currents Weather Stations Pressure Air Temp Water Temp Dewpoint Dewpoint Depression Visibility Wind Speed Wind Dir Waves Ship Positions

City Of Cleveland

Owner: JANTRAN, INC., ROSEDALE, MS. More information available from US FCC via Universal Licensing System and Coast Guard Vessel Documentation Center.

Last reported at 2017-Mar-23 01:23 UTC. Time now 2017-Mar-27 00:50 UTC.
Position N 31°60' W 091°05'.

Length 42 m; draft 12.5 m.

Type: Towing. MMSI: 366991810.

Date/timePositionNaut miles runAvg speedWind from/ knotsBaromVisibWave heightAir tempDewpointWater temp
2017-Mar-23 01:23N 31°60' W 091°05'6 7.1
2017-Mar-23 00:32N 32°06' W 091°06'4 4.1
2017-Mar-22 23:33N 32°07' W 091°01'8 8.4
2017-Mar-22 22:33N 32°15' W 090°59'6 5.9
2017-Mar-22 21:34N 32°21' W 090°56'6 5.8
2017-Mar-22 20:33N 32°25' W 091°00'7 7.3
2017-Mar-22 19:33N 32°30' W 091°07'7 7.4
2017-Mar-22 18:33N 32°37' W 091°09'  
2017-Mar-19 14:33N 32°53' W 091°05'4 3.9
2017-Mar-19 13:26N 32°50' W 091°08'3 3.7
2017-Mar-19 12:33N 32°47' W 091°09'3 3.0
2017-Mar-19 11:26N 32°44' W 091°07'3 3.7
2017-Mar-19 10:32N 32°43' W 091°03'4 3.7
2017-Mar-19 09:33N 32°40' W 091°06'4 3.6
2017-Mar-19 08:33N 32°38' W 091°09'3 3.4
2017-Mar-19 07:33N 32°35' W 091°07'3 3.4
2017-Mar-19 06:33N 32°32' W 091°06'4 3.7
2017-Mar-19 05:33N 32°28' W 091°06'3 3.3
2017-Mar-19 04:34N 32°26' W 091°03'3 3.4
2017-Mar-19 03:33N 32°24' W 090°59'3 3.2
2017-Mar-19 02:33N 32°21' W 090°59'4 4.1
2017-Mar-19 01:33N 32°21' W 090°55'3 3.3
2017-Mar-19 00:33N 32°18' W 090°56'4 3.6
2017-Mar-18 23:34N 32°15' W 090°59'4 3.5
2017-Mar-18 22:34N 32°11' W 090°60'4 3.6
2017-Mar-18 21:34N 32°08' W 091°01'4 3.4
2017-Mar-18 20:28N 32°08' W 091°05'3 1.1
2017-Mar-18 17:13N 32°05' W 091°04'2 3.4
2017-Mar-18 16:33N 32°02' W 091°04'20 3.3
2017-Mar-18 10:28N 31°49' W 091°21'  
Track history (hours):
 
Tides and Currents Weather Stations Pressure Air Temp Water Temp Dewpoint Dewpoint Depression Visibility Wind Speed Wind Dir Waves Ship Positions

City Of Cleveland

Owner: JANTRAN, INC., ROSEDALE, MS. More information available from US FCC via Universal Licensing System and Coast Guard Vessel Documentation Center.

Last reported at 2017-Mar-23 01:23 UTC. Time now 2017-Mar-27 00:50 UTC.
Position N 31°60' W 091°05'.

Length 42 m; draft 12.5 m.

Type: Towing. MMSI: 366991810.

Date/timePositionNaut miles runAvg speedWind from/ knotsBaromVisibWave heightAir tempDewpointWater temp
2017-Mar-23 01:23N 31°60' W 091°05'6 7.1
2017-Mar-23 00:32N 32°06' W 091°06'4 4.1
2017-Mar-22 23:33N 32°07' W 091°01'8 8.4
2017-Mar-22 22:33N 32°15' W 090°59'6 5.9
2017-Mar-22 21:34N 32°21' W 090°56'6 5.8
2017-Mar-22 20:33N 32°25' W 091°00'7 7.3
2017-Mar-22 19:33N 32°30' W 091°07'7 7.4
2017-Mar-22 18:33N 32°37' W 091°09'  
2017-Mar-19 14:33N 32°53' W 091°05'4 3.9
2017-Mar-19 13:26N 32°50' W 091°08'3 3.7
2017-Mar-19 12:33N 32°47' W 091°09'3 3.0
2017-Mar-19 11:26N 32°44' W 091°07'3 3.7
2017-Mar-19 10:32N 32°43' W 091°03'4 3.7
2017-Mar-19 09:33N 32°40' W 091°06'4 3.6
2017-Mar-19 08:33N 32°38' W 091°09'3 3.4
2017-Mar-19 07:33N 32°35' W 091°07'3 3.4
2017-Mar-19 06:33N 32°32' W 091°06'4 3.7
2017-Mar-19 05:33N 32°28' W 091°06'3 3.3
2017-Mar-19 04:34N 32°26' W 091°03'3 3.4
2017-Mar-19 03:33N 32°24' W 090°59'3 3.2
2017-Mar-19 02:33N 32°21' W 090°59'4 4.1
2017-Mar-19 01:33N 32°21' W 090°55'3 3.3
2017-Mar-19 00:33N 32°18' W 090°56'4 3.6
2017-Mar-18 23:34N 32°15' W 090°59'4 3.5
2017-Mar-18 22:34N 32°11' W 090°60'4 3.6
2017-Mar-18 21:34N 32°08' W 091°01'4 3.4
2017-Mar-18 20:28N 32°08' W 091°05'3 1.1
2017-Mar-18 17:13N 32°05' W 091°04'2 3.4
2017-Mar-18 16:33N 32°02' W 091°04'20 3.3
2017-Mar-18 10:28N 31°49' W 091°21'  

Dump ship's entire track history